Hindu — WDG6190 — position and weather

sailwx.info

Track history (hours):
 
Tides and Currents Weather Stations Pressure Air Temp Water Temp Dewpoint Dewpoint Depression Visibility Wind Speed Wind Dir Waves Ship Positions

Hindu

More information available from US FCC via Universal Licensing System and Coast Guard Vessel Documentation Center.

Last reported at 2014-Jun-23 21:06 UTC. Time now 2014-Jul-23 18:04 UTC.
Position N 41°29' W 070°39'.
Warning: this ship's position is 29 days out of date.

Length 24 m.

Type: Sailing vessel. MMSI: 367554370.

Date/timePositionNaut miles runAvg speedWind from/ knotsBaromVisibWave heightAir tempDewpointWater temp
2014-Jun-23 21:06N 41°29' W 070°39'5 9.3
2014-Jun-23 20:33N 41°27' W 070°45'8 8.4
2014-Jun-23 19:33N 41°22' W 070°54'7 7.3
2014-Jun-23 18:32N 41°22' W 071°04'7 7.3
2014-Jun-23 17:33N 41°22' W 071°14'5 5.3
2014-Jun-23 16:33N 41°24' W 071°21'  
2014-Jun-20 19:32N 41°19' W 071°22'7 7.3
2014-Jun-20 18:33N 41°12' W 071°22'8 7.5
2014-Jun-20 17:33N 41°04' W 071°22'8 7.6
2014-Jun-20 16:33N 40°57' W 071°25'8 7.5
2014-Jun-20 15:33N 40°50' W 071°28'8 7.5
2014-Jun-20 14:32N 40°43' W 071°31'8 7.2
2014-Jun-20 13:24N 40°35' W 071°35'5 6.2
2014-Jun-20 12:33N 40°30' W 071°39'6 6.4
2014-Jun-20 11:33N 40°25' W 071°43'  
2014-Jun-17 13:32N 34°38' W 076°41'5 5.0
2014-Jun-17 12:33N 34°43' W 076°40'0 0.0
2014-Jun-15 13:22N 34°44' W 076°40'1 0.8
2014-Jun-15 12:31N 34°43' W 076°40'0 0.0
2014-Jun-15 11:31N 34°43' W 076°40'4 4.4
2014-Jun-15 10:33N 34°39' W 076°41'  
Track history (hours):
 
Tides and Currents Weather Stations Pressure Air Temp Water Temp Dewpoint Dewpoint Depression Visibility Wind Speed Wind Dir Waves Ship Positions

Hindu

More information available from US FCC via Universal Licensing System and Coast Guard Vessel Documentation Center.

Last reported at 2014-Jun-23 21:06 UTC. Time now 2014-Jul-23 18:04 UTC.
Position N 41°29' W 070°39'.
Warning: this ship's position is 29 days out of date.

Length 24 m.

Type: Sailing vessel. MMSI: 367554370.

Date/timePositionNaut miles runAvg speedWind from/ knotsBaromVisibWave heightAir tempDewpointWater temp
2014-Jun-23 21:06N 41°29' W 070°39'5 9.3
2014-Jun-23 20:33N 41°27' W 070°45'8 8.4
2014-Jun-23 19:33N 41°22' W 070°54'7 7.3
2014-Jun-23 18:32N 41°22' W 071°04'7 7.3
2014-Jun-23 17:33N 41°22' W 071°14'5 5.3
2014-Jun-23 16:33N 41°24' W 071°21'  
2014-Jun-20 19:32N 41°19' W 071°22'7 7.3
2014-Jun-20 18:33N 41°12' W 071°22'8 7.5
2014-Jun-20 17:33N 41°04' W 071°22'8 7.6
2014-Jun-20 16:33N 40°57' W 071°25'8 7.5
2014-Jun-20 15:33N 40°50' W 071°28'8 7.5
2014-Jun-20 14:32N 40°43' W 071°31'8 7.2
2014-Jun-20 13:24N 40°35' W 071°35'5 6.2
2014-Jun-20 12:33N 40°30' W 071°39'6 6.4
2014-Jun-20 11:33N 40°25' W 071°43'  
2014-Jun-17 13:32N 34°38' W 076°41'5 5.0
2014-Jun-17 12:33N 34°43' W 076°40'0 0.0
2014-Jun-15 13:22N 34°44' W 076°40'1 0.8
2014-Jun-15 12:31N 34°43' W 076°40'0 0.0
2014-Jun-15 11:31N 34°43' W 076°40'4 4.4
2014-Jun-15 10:33N 34°39' W 076°41'  

Dump ship's entire track history